sensor_id;sensor_type;location;lat;lon;timestamp;temperature;humidity
5128;DHT22;2582;48.770;9.190;2023-06-24T00:01:21;19.50;99.90
5128;DHT22;2582;48.770;9.190;2023-06-24T00:03:48;19.60;99.90
5128;DHT22;2582;48.770;9.190;2023-06-24T00:06:13;19.40;99.90
5128;DHT22;2582;48.770;9.190;2023-06-24T00:08:47;19.30;99.90
5128;DHT22;2582;48.770;9.190;2023-06-24T00:11:13;19.10;99.90
5128;DHT22;2582;48.770;9.190;2023-06-24T00:13:40;19.10;99.90
5128;DHT22;2582;48.770;9.190;2023-06-24T00:16:05;19.10;99.90
5128;DHT22;2582;48.770;9.190;2023-06-24T00:18:32;19.20;99.90
5128;DHT22;2582;48.770;9.190;2023-06-24T00:20:58;19.10;99.90
5128;DHT22;2582;48.770;9.190;2023-06-24T00:23:24;19.10;99.90
5128;DHT22;2582;48.770;9.190;2023-06-24T00:25:51;19.00;99.90
5128;DHT22;2582;48.770;9.190;2023-06-24T00:28:17;18.80;99.90
5128;DHT22;2582;48.770;9.190;2023-06-24T00:30:42;18.80;99.90
5128;DHT22;2582;48.770;9.190;2023-06-24T00:33:08;18.80;99.90
5128;DHT22;2582;48.770;9.190;2023-06-24T00:35:37;18.80;99.90
5128;DHT22;2582;48.770;9.190;2023-06-24T00:38:03;18.80;99.90
5128;DHT22;2582;48.770;9.190;2023-06-24T00:40:29;18.70;99.90
5128;DHT22;2582;48.770;9.190;2023-06-24T00:42:54;18.70;99.90
5128;DHT22;2582;48.770;9.190;2023-06-24T00:45:21;18.50;99.90
5128;DHT22;2582;48.770;9.190;2023-06-24T00:47:47;18.50;99.90
5128;DHT22;2582;48.770;9.190;2023-06-24T00:50:14;18.50;99.90
5128;DHT22;2582;48.770;9.190;2023-06-24T00:52:40;18.50;99.90
5128;DHT22;2582;48.770;9.190;2023-06-24T00:55:10;18.30;99.90
5128;DHT22;2582;48.770;9.190;2023-06-24T00:57:39;18.40;99.90
5128;DHT22;2582;48.770;9.190;2023-06-24T01:00:05;18.40;99.90
5128;DHT22;2582;48.770;9.190;2023-06-24T01:02:49;18.30;99.90
5128;DHT22;2582;48.770;9.190;2023-06-24T01:05:15;18.30;99.90
5128;DHT22;2582;48.770;9.190;2023-06-24T01:07:42;18.20;99.90
5128;DHT22;2582;48.770;9.190;2023-06-24T01:10:10;18.20;99.90
5128;DHT22;2582;48.770;9.190;2023-06-24T01:12:39;18.20;99.90
5128;DHT22;2582;48.770;9.190;2023-06-24T01:15:07;18.20;99.90
5128;DHT22;2582;48.770;9.190;2023-06-24T01:23:32;17.90;99.90
5128;DHT22;2582;48.770;9.190;2023-06-24T01:29:30;18.00;99.90
5128;DHT22;2582;48.770;9.190;2023-06-24T01:35:00;17.90;99.90
5128;DHT22;2582;48.770;9.190;2023-06-24T01:37:45;17.80;99.90
5128;DHT22;2582;48.770;9.190;2023-06-24T01:40:26;17.90;99.90
5128;DHT22;2582;48.770;9.190;2023-06-24T01:42:52;18.00;99.90
5128;DHT22;2582;48.770;9.190;2023-06-24T01:45:23;18.10;99.90
5128;DHT22;2582;48.770;9.190;2023-06-24T01:47:59;18.10;99.90
5128;DHT22;2582;48.770;9.190;2023-06-24T01:50:26;18.10;99.90
5128;DHT22;2582;48.770;9.190;2023-06-24T01:52:55;18.00;99.90
5128;DHT22;2582;48.770;9.190;2023-06-24T01:55:23;17.90;99.90
5128;DHT22;2582;48.770;9.190;2023-06-24T01:57:50;18.00;99.90
5128;DHT22;2582;48.770;9.190;2023-06-24T02:00:17;17.90;99.90
5128;DHT22;2582;48.770;9.190;2023-06-24T02:02:43;17.90;99.90
5128;DHT22;2582;48.770;9.190;2023-06-24T02:05:10;17.80;99.90
5128;DHT22;2582;48.770;9.190;2023-06-24T02:07:38;17.80;99.90
5128;DHT22;2582;48.770;9.190;2023-06-24T02:10:06;17.80;99.90
5128;DHT22;2582;48.770;9.190;2023-06-24T02:12:32;17.80;99.90
5128;DHT22;2582;48.770;9.190;2023-06-24T02:14:59;17.80;99.90
5128;DHT22;2582;48.770;9.190;2023-06-24T02:17:25;17.90;99.90
5128;DHT22;2582;48.770;9.190;2023-06-24T02:19:55;17.90;99.90
5128;DHT22;2582;48.770;9.190;2023-06-24T02:22:22;18.00;99.90
5128;DHT22;2582;48.770;9.190;2023-06-24T02:24:49;17.90;99.90
5128;DHT22;2582;48.770;9.190;2023-06-24T02:27:16;17.90;99.90
5128;DHT22;2582;48.770;9.190;2023-06-24T02:29:42;18.00;99.90
5128;DHT22;2582;48.770;9.190;2023-06-24T02:32:09;17.90;99.90
5128;DHT22;2582;48.770;9.190;2023-06-24T02:34:35;17.70;99.90
5128;DHT22;2582;48.770;9.190;2023-06-24T02:37:01;17.60;99.90
5128;DHT22;2582;48.770;9.190;2023-06-24T02:39:26;17.70;99.90
5128;DHT22;2582;48.770;9.190;2023-06-24T02:41:52;17.80;99.90
5128;DHT22;2582;48.770;9.190;2023-06-24T02:44:17;17.70;99.90
5128;DHT22;2582;48.770;9.190;2023-06-24T02:46:44;17.70;99.90
5128;DHT22;2582;48.770;9.190;2023-06-24T02:49:12;17.70;99.90
5128;DHT22;2582;48.770;9.190;2023-06-24T02:51:39;17.70;99.90
5128;DHT22;2582;48.770;9.190;2023-06-24T02:54:06;17.70;99.90
5128;DHT22;2582;48.770;9.190;2023-06-24T02:56:32;17.60;99.90
5128;DHT22;2582;48.770;9.190;2023-06-24T02:58:58;17.60;99.90
5128;DHT22;2582;48.770;9.190;2023-06-24T03:01:24;17.60;99.90
5128;DHT22;2582;48.770;9.190;2023-06-24T03:03:55;17.60;99.90
5128;DHT22;2582;48.770;9.190;2023-06-24T03:06:21;17.50;99.90
5128;DHT22;2582;48.770;9.190;2023-06-24T03:08:48;17.50;99.90
5128;DHT22;2582;48.770;9.190;2023-06-24T03:11:15;17.50;99.90
5128;DHT22;2582;48.770;9.190;2023-06-24T03:13:41;17.50;99.90
5128;DHT22;2582;48.770;9.190;2023-06-24T03:16:07;17.50;99.90
5128;DHT22;2582;48.770;9.190;2023-06-24T03:18:40;17.40;99.90
5128;DHT22;2582;48.770;9.190;2023-06-24T03:21:05;17.40;99.90
5128;DHT22;2582;48.770;9.190;2023-06-24T03:23:31;17.40;99.90
5128;DHT22;2582;48.770;9.190;2023-06-24T03:25:57;17.30;99.90
5128;DHT22;2582;48.770;9.190;2023-06-24T03:28:22;17.30;99.90
5128;DHT22;2582;48.770;9.190;2023-06-24T03:30:48;17.30;99.90
5128;DHT22;2582;48.770;9.190;2023-06-24T03:33:13;17.30;99.90
5128;DHT22;2582;48.770;9.190;2023-06-24T03:35:42;17.30;99.90
5128;DHT22;2582;48.770;9.190;2023-06-24T03:38:08;17.20;99.90
5128;DHT22;2582;48.770;9.190;2023-06-24T03:40:33;17.20;99.90
5128;DHT22;2582;48.770;9.190;2023-06-24T03:42:59;17.20;99.90
5128;DHT22;2582;48.770;9.190;2023-06-24T03:45:24;17.20;99.90
5128;DHT22;2582;48.770;9.190;2023-06-24T03:47:50;17.20;99.90
5128;DHT22;2582;48.770;9.190;2023-06-24T03:50:16;17.30;99.90
5128;DHT22;2582;48.770;9.190;2023-06-24T03:52:41;17.40;99.90
5128;DHT22;2582;48.770;9.190;2023-06-24T03:55:07;17.50;99.90
5128;DHT22;2582;48.770;9.190;2023-06-24T03:57:33;17.60;99.90
5128;DHT22;2582;48.770;9.190;2023-06-24T03:59:58;17.70;99.90
5128;DHT22;2582;48.770;9.190;2023-06-24T04:02:24;17.70;99.90
5128;DHT22;2582;48.770;9.190;2023-06-24T04:04:49;17.70;99.90
5128;DHT22;2582;48.770;9.190;2023-06-24T04:07:16;17.70;99.90
5128;DHT22;2582;48.770;9.190;2023-06-24T04:09:54;17.70;99.90
5128;DHT22;2582;48.770;9.190;2023-06-24T04:12:20;17.70;99.90
5128;DHT22;2582;48.770;9.190;2023-06-24T04:14:46;17.80;99.90
5128;DHT22;2582;48.770;9.190;2023-06-24T04:17:11;17.80;99.90
5128;DHT22;2582;48.770;9.190;2023-06-24T04:19:37;17.90;99.90
5128;DHT22;2582;48.770;9.190;2023-06-24T04:22:02;18.00;99.90
5128;DHT22;2582;48.770;9.190;2023-06-24T04:24:28;18.10;99.90
5128;DHT22;2582;48.770;9.190;2023-06-24T04:26:54;18.10;99.90
5128;DHT22;2582;48.770;9.190;2023-06-24T04:29:20;18.20;99.90
5128;DHT22;2582;48.770;9.190;2023-06-24T04:31:46;18.30;99.90
5128;DHT22;2582;48.770;9.190;2023-06-24T04:34:11;18.30;99.90
5128;DHT22;2582;48.770;9.190;2023-06-24T04:36:37;18.30;99.90
5128;DHT22;2582;48.770;9.190;2023-06-24T04:39:04;18.40;99.90
5128;DHT22;2582;48.770;9.190;2023-06-24T04:41:29;18.50;99.90
5128;DHT22;2582;48.770;9.190;2023-06-24T04:43:57;18.50;99.90
5128;DHT22;2582;48.770;9.190;2023-06-24T04:46:23;18.50;99.90
5128;DHT22;2582;48.770;9.190;2023-06-24T04:48:49;18.60;99.90
5128;DHT22;2582;48.770;9.190;2023-06-24T04:51:14;18.60;99.90
5128;DHT22;2582;48.770;9.190;2023-06-24T04:53:40;18.70;99.90
5128;DHT22;2582;48.770;9.190;2023-06-24T04:56:06;18.80;99.90
5128;DHT22;2582;48.770;9.190;2023-06-24T04:58:32;18.80;99.90
5128;DHT22;2582;48.770;9.190;2023-06-24T05:00:57;18.90;99.90
5128;DHT22;2582;48.770;9.190;2023-06-24T05:03:24;18.90;99.90
5128;DHT22;2582;48.770;9.190;2023-06-24T05:05:49;19.00;99.90
5128;DHT22;2582;48.770;9.190;2023-06-24T05:08:15;19.00;99.90
5128;DHT22;2582;48.770;9.190;2023-06-24T05:10:40;19.10;99.90
5128;DHT22;2582;48.770;9.190;2023-06-24T05:13:06;19.10;99.90
5128;DHT22;2582;48.770;9.190;2023-06-24T05:15:31;19.20;99.90
5128;DHT22;2582;48.770;9.190;2023-06-24T05:17:57;19.30;99.90
5128;DHT22;2582;48.770;9.190;2023-06-24T05:20:22;19.30;99.90
5128;DHT22;2582;48.770;9.190;2023-06-24T05:22:48;19.40;99.90
5128;DHT22;2582;48.770;9.190;2023-06-24T05:25:14;19.40;99.90
5128;DHT22;2582;48.770;9.190;2023-06-24T05:27:39;19.50;99.90
5128;DHT22;2582;48.770;9.190;2023-06-24T05:30:05;19.60;99.90
5128;DHT22;2582;48.770;9.190;2023-06-24T05:32:31;19.80;99.90
5128;DHT22;2582;48.770;9.190;2023-06-24T05:34:57;19.90;99.90
5128;DHT22;2582;48.770;9.190;2023-06-24T05:37:22;20.10;99.90
5128;DHT22;2582;48.770;9.190;2023-06-24T05:39:48;20.20;99.90
5128;DHT22;2582;48.770;9.190;2023-06-24T05:42:13;20.20;99.90
5128;DHT22;2582;48.770;9.190;2023-06-24T05:44:39;20.30;99.90
5128;DHT22;2582;48.770;9.190;2023-06-24T05:47:05;20.40;99.90
5128;DHT22;2582;48.770;9.190;2023-06-24T05:49:30;20.50;99.90
5128;DHT22;2582;48.770;9.190;2023-06-24T05:51:56;20.70;99.90
5128;DHT22;2582;48.770;9.190;2023-06-24T05:54:23;20.80;99.90
5128;DHT22;2582;48.770;9.190;2023-06-24T05:56:48;20.90;99.90
5128;DHT22;2582;48.770;9.190;2023-06-24T05:59:14;20.90;99.90
5128;DHT22;2582;48.770;9.190;2023-06-24T06:01:39;20.90;99.90
5128;DHT22;2582;48.770;9.190;2023-06-24T06:04:05;21.00;99.90
5128;DHT22;2582;48.770;9.190;2023-06-24T06:06:31;21.00;99.90
5128;DHT22;2582;48.770;9.190;2023-06-24T06:08:57;21.30;99.90
5128;DHT22;2582;48.770;9.190;2023-06-24T06:11:23;21.40;99.90
5128;DHT22;2582;48.770;9.190;2023-06-24T06:13:48;21.50;99.90
5128;DHT22;2582;48.770;9.190;2023-06-24T06:16:14;21.60;99.90
5128;DHT22;2582;48.770;9.190;2023-06-24T06:18:39;21.70;99.90
5128;DHT22;2582;48.770;9.190;2023-06-24T06:21:05;21.80;99.90
5128;DHT22;2582;48.770;9.190;2023-06-24T06:23:31;21.90;99.90
5128;DHT22;2582;48.770;9.190;2023-06-24T06:25:56;22.00;99.90
5128;DHT22;2582;48.770;9.190;2023-06-24T06:28:22;22.00;99.90
5128;DHT22;2582;48.770;9.190;2023-06-24T06:30:47;22.10;99.90
5128;DHT22;2582;48.770;9.190;2023-06-24T06:33:13;21.80;99.90
5128;DHT22;2582;48.770;9.190;2023-06-24T06:35:39;21.80;99.90
5128;DHT22;2582;48.770;9.190;2023-06-24T06:38:05;21.90;99.90
5128;DHT22;2582;48.770;9.190;2023-06-24T06:40:30;21.60;99.90
5128;DHT22;2582;48.770;9.190;2023-06-24T06:42:56;21.60;99.90
5128;DHT22;2582;48.770;9.190;2023-06-24T06:45:22;21.60;99.90
5128;DHT22;2582;48.770;9.190;2023-06-24T06:47:48;21.80;99.90
5128;DHT22;2582;48.770;9.190;2023-06-24T06:50:14;21.90;99.90
5128;DHT22;2582;48.770;9.190;2023-06-24T06:52:39;22.10;99.90
5128;DHT22;2582;48.770;9.190;2023-06-24T06:55:05;22.20;99.90
5128;DHT22;2582;48.770;9.190;2023-06-24T06:57:31;22.40;99.90
5128;DHT22;2582;48.770;9.190;2023-06-24T06:59:57;22.50;99.90
5128;DHT22;2582;48.770;9.190;2023-06-24T07:02:22;22.60;99.90
5128;DHT22;2582;48.770;9.190;2023-06-24T07:04:48;22.70;99.90
5128;DHT22;2582;48.770;9.190;2023-06-24T07:07:15;22.80;99.90
5128;DHT22;2582;48.770;9.190;2023-06-24T07:09:41;22.90;99.90
5128;DHT22;2582;48.770;9.190;2023-06-24T07:12:07;23.00;99.90
5128;DHT22;2582;48.770;9.190;2023-06-24T07:14:33;22.90;99.90
5128;DHT22;2582;48.770;9.190;2023-06-24T07:16:58;22.80;99.90
5128;DHT22;2582;48.770;9.190;2023-06-24T07:19:24;23.10;99.90
5128;DHT22;2582;48.770;9.190;2023-06-24T07:21:50;23.00;99.90
5128;DHT22;2582;48.770;9.190;2023-06-24T07:24:16;22.90;99.90
5128;DHT22;2582;48.770;9.190;2023-06-24T07:26:41;22.80;99.90
5128;DHT22;2582;48.770;9.190;2023-06-24T07:29:07;22.80;99.90
5128;DHT22;2582;48.770;9.190;2023-06-24T07:31:34;22.70;99.90
5128;DHT22;2582;48.770;9.190;2023-06-24T07:34:00;22.90;99.90
5128;DHT22;2582;48.770;9.190;2023-06-24T07:36:26;23.20;99.90
5128;DHT22;2582;48.770;9.190;2023-06-24T07:38:51;23.30;99.90
5128;DHT22;2582;48.770;9.190;2023-06-24T07:41:17;23.20;99.70
5128;DHT22;2582;48.770;9.190;2023-06-24T07:43:42;23.10;99.60
5128;DHT22;2582;48.770;9.190;2023-06-24T07:46:08;23.00;99.70
5128;DHT22;2582;48.770;9.190;2023-06-24T07:48:34;23.40;99.80
5128;DHT22;2582;48.770;9.190;2023-06-24T07:50:59;23.60;99.10
5128;DHT22;2582;48.770;9.190;2023-06-24T07:53:25;23.60;98.80
5128;DHT22;2582;48.770;9.190;2023-06-24T07:55:50;23.50;98.10
5128;DHT22;2582;48.770;9.190;2023-06-24T07:58:16;23.40;98.60
5128;DHT22;2582;48.770;9.190;2023-06-24T08:00:42;23.50;98.30
5128;DHT22;2582;48.770;9.190;2023-06-24T08:03:08;23.40;98.60
5128;DHT22;2582;48.770;9.190;2023-06-24T08:05:33;23.40;98.40
5128;DHT22;2582;48.770;9.190;2023-06-24T08:07:59;23.50;98.20
5128;DHT22;2582;48.770;9.190;2023-06-24T08:10:25;23.50;98.10
5128;DHT22;2582;48.770;9.190;2023-06-24T08:12:50;23.70;97.90
5128;DHT22;2582;48.770;9.190;2023-06-24T08:15:16;23.70;97.90
5128;DHT22;2582;48.770;9.190;2023-06-24T08:17:41;23.80;98.00
5128;DHT22;2582;48.770;9.190;2023-06-24T08:20:07;23.80;97.90
5128;DHT22;2582;48.770;9.190;2023-06-24T08:22:33;24.00;98.20
5128;DHT22;2582;48.770;9.190;2023-06-24T08:24:59;24.10;97.60
5128;DHT22;2582;48.770;9.190;2023-06-24T08:27:24;24.20;97.70
5128;DHT22;2582;48.770;9.190;2023-06-24T08:30:09;24.20;97.10
5128;DHT22;2582;48.770;9.190;2023-06-24T08:35:39;24.60;96.90
5128;DHT22;2582;48.770;9.190;2023-06-24T08:38:04;24.70;96.60
5128;DHT22;2582;48.770;9.190;2023-06-24T08:40:30;24.80;95.90
5128;DHT22;2582;48.770;9.190;2023-06-24T08:42:56;24.60;95.80
5128;DHT22;2582;48.770;9.190;2023-06-24T08:45:23;24.50;96.00
5128;DHT22;2582;48.770;9.190;2023-06-24T08:47:49;24.40;96.40
5128;DHT22;2582;48.770;9.190;2023-06-24T08:50:16;24.40;96.20
5128;DHT22;2582;48.770;9.190;2023-06-24T08:52:46;24.60;96.00
5128;DHT22;2582;48.770;9.190;2023-06-24T08:55:16;24.90;95.70
5128;DHT22;2582;48.770;9.190;2023-06-24T08:57:42;25.00;95.60
5128;DHT22;2582;48.770;9.190;2023-06-24T09:00:08;25.10;94.00
5128;DHT22;2582;48.770;9.190;2023-06-24T09:02:37;24.90;91.90
5128;DHT22;2582;48.770;9.190;2023-06-24T09:05:07;24.80;92.60
5128;DHT22;2582;48.770;9.190;2023-06-24T09:07:33;24.70;92.40
5128;DHT22;2582;48.770;9.190;2023-06-24T09:09:59;24.70;92.60
5128;DHT22;2582;48.770;9.190;2023-06-24T09:12:26;24.90;92.60
5128;DHT22;2582;48.770;9.190;2023-06-24T09:14:52;25.10;92.50
5128;DHT22;2582;48.770;9.190;2023-06-24T09:17:18;25.20;92.60
5128;DHT22;2582;48.770;9.190;2023-06-24T09:19:48;25.50;92.00
5128;DHT22;2582;48.770;9.190;2023-06-24T09:22:14;25.40;90.70
5128;DHT22;2582;48.770;9.190;2023-06-24T09:24:45;25.40;90.30
5128;DHT22;2582;48.770;9.190;2023-06-24T09:27:16;25.10;90.60
5128;DHT22;2582;48.770;9.190;2023-06-24T09:29:42;25.00;90.60
5128;DHT22;2582;48.770;9.190;2023-06-24T09:32:09;25.10;90.10
5128;DHT22;2582;48.770;9.190;2023-06-24T09:34:35;25.00;90.10
5128;DHT22;2582;48.770;9.190;2023-06-24T09:37:00;25.20;89.50
5128;DHT22;2582;48.770;9.190;2023-06-24T09:39:27;25.40;87.20
5128;DHT22;2582;48.770;9.190;2023-06-24T09:42:00;25.60;85.30
5128;DHT22;2582;48.770;9.190;2023-06-24T09:44:27;25.50;87.10
5128;DHT22;2582;48.770;9.190;2023-06-24T09:46:53;25.60;86.60
5128;DHT22;2582;48.770;9.190;2023-06-24T09:49:19;25.90;86.60
5128;DHT22;2582;48.770;9.190;2023-06-24T09:51:46;26.10;86.40
5128;DHT22;2582;48.770;9.190;2023-06-24T09:54:13;26.00;83.00
5128;DHT22;2582;48.770;9.190;2023-06-24T09:56:43;26.10;80.60
5128;DHT22;2582;48.770;9.190;2023-06-24T09:59:11;25.90;79.60
5128;DHT22;2582;48.770;9.190;2023-06-24T10:01:39;26.10;78.50
5128;DHT22;2582;48.770;9.190;2023-06-24T10:04:08;25.90;79.60
5128;DHT22;2582;48.770;9.190;2023-06-24T10:06:34;25.80;84.00
5128;DHT22;2582;48.770;9.190;2023-06-24T10:09:04;25.90;81.70
5128;DHT22;2582;48.770;9.190;2023-06-24T10:11:30;25.80;82.20
5128;DHT22;2582;48.770;9.190;2023-06-24T10:13:56;26.00;80.90
5128;DHT22;2582;48.770;9.190;2023-06-24T10:16:22;26.20;82.40
5128;DHT22;2582;48.770;9.190;2023-06-24T10:18:48;26.40;80.40
5128;DHT22;2582;48.770;9.190;2023-06-24T10:21:15;26.20;81.00
5128;DHT22;2582;48.770;9.190;2023-06-24T10:26:10;26.10;81.00
5128;DHT22;2582;48.770;9.190;2023-06-24T10:36:53;26.00;80.70
5128;DHT22;2582;48.770;9.190;2023-06-24T10:44:53;26.10;79.10
5128;DHT22;2582;48.770;9.190;2023-06-24T10:47:21;26.30;78.50
5128;DHT22;2582;48.770;9.190;2023-06-24T10:49:47;26.80;79.40
5128;DHT22;2582;48.770;9.190;2023-06-24T10:52:13;27.00;75.10
5128;DHT22;2582;48.770;9.190;2023-06-24T10:54:40;27.50;71.80
5128;DHT22;2582;48.770;9.190;2023-06-24T10:57:07;27.70;67.40
5128;DHT22;2582;48.770;9.190;2023-06-24T10:59:39;27.60;66.80
5128;DHT22;2582;48.770;9.190;2023-06-24T11:02:04;27.30;68.00
5128;DHT22;2582;48.770;9.190;2023-06-24T11:04:30;27.40;69.60
5128;DHT22;2582;48.770;9.190;2023-06-24T11:06:59;27.30;70.40
5128;DHT22;2582;48.770;9.190;2023-06-24T11:09:25;27.10;70.40
5128;DHT22;2582;48.770;9.190;2023-06-24T11:11:50;27.00;70.40
5128;DHT22;2582;48.770;9.190;2023-06-24T11:14:16;26.90;71.10
5128;DHT22;2582;48.770;9.190;2023-06-24T11:16:42;26.80;73.40
5128;DHT22;2582;48.770;9.190;2023-06-24T11:19:08;26.90;70.90
5128;DHT22;2582;48.770;9.190;2023-06-24T11:21:34;26.90;71.00
5128;DHT22;2582;48.770;9.190;2023-06-24T11:24:03;27.20;69.20
5128;DHT22;2582;48.770;9.190;2023-06-24T11:26:29;27.40;69.70
5128;DHT22;2582;48.770;9.190;2023-06-24T11:28:55;27.80;68.70
5128;DHT22;2582;48.770;9.190;2023-06-24T11:31:27;28.10;68.00
5128;DHT22;2582;48.770;9.190;2023-06-24T11:33:52;28.40;65.20
5128;DHT22;2582;48.770;9.190;2023-06-24T11:36:22;29.00;63.20
5128;DHT22;2582;48.770;9.190;2023-06-24T11:38:48;31.10;59.30
5128;DHT22;2582;48.770;9.190;2023-06-24T11:41:14;33.40;57.10
5128;DHT22;2582;48.770;9.190;2023-06-24T11:43:46;33.90;53.40
5128;DHT22;2582;48.770;9.190;2023-06-24T11:46:29;33.10;52.10
5128;DHT22;2582;48.770;9.190;2023-06-24T11:49:05;33.20;51.90
5128;DHT22;2582;48.770;9.190;2023-06-24T11:51:32;33.00;51.70
5128;DHT22;2582;48.770;9.190;2023-06-24T11:54:05;33.80;50.20
5128;DHT22;2582;48.770;9.190;2023-06-24T11:56:38;32.80;50.40
5128;DHT22;2582;48.770;9.190;2023-06-24T11:59:16;31.00;52.50
5128;DHT22;2582;48.770;9.190;2023-06-24T12:01:43;30.20;55.10
5128;DHT22;2582;48.770;9.190;2023-06-24T12:04:13;30.10;55.30
5128;DHT22;2582;48.770;9.190;2023-06-24T12:06:42;32.40;52.60
5128;DHT22;2582;48.770;9.190;2023-06-24T12:09:11;33.00;50.80
5128;DHT22;2582;48.770;9.190;2023-06-24T12:11:37;33.40;50.50
5128;DHT22;2582;48.770;9.190;2023-06-24T12:14:03;34.40;49.10
5128;DHT22;2582;48.770;9.190;2023-06-24T12:16:29;35.30;47.00
5128;DHT22;2582;48.770;9.190;2023-06-24T12:18:55;36.00;46.20
5128;DHT22;2582;48.770;9.190;2023-06-24T12:21:20;37.00;44.40
5128;DHT22;2582;48.770;9.190;2023-06-24T12:23:46;36.60;43.30
5128;DHT22;2582;48.770;9.190;2023-06-24T12:26:12;37.00;42.60
5128;DHT22;2582;48.770;9.190;2023-06-24T12:28:37;38.10;40.80
5128;DHT22;2582;48.770;9.190;2023-06-24T12:31:03;36.50;41.30
5128;DHT22;2582;48.770;9.190;2023-06-24T12:33:30;34.70;44.00
5128;DHT22;2582;48.770;9.190;2023-06-24T12:35:55;35.80;43.90
5128;DHT22;2582;48.770;9.190;2023-06-24T12:38:21;36.00;42.70
5128;DHT22;2582;48.770;9.190;2023-06-24T12:40:46;36.60;42.40
5128;DHT22;2582;48.770;9.190;2023-06-24T12:43:14;36.90;41.40
5128;DHT22;2582;48.770;9.190;2023-06-24T12:45:42;37.30;42.70
5128;DHT22;2582;48.770;9.190;2023-06-24T12:48:09;37.60;41.10
5128;DHT22;2582;48.770;9.190;2023-06-24T12:50:35;37.40;41.60
5128;DHT22;2582;48.770;9.190;2023-06-24T12:53:01;35.90;41.50
5128;DHT22;2582;48.770;9.190;2023-06-24T12:55:28;35.10;42.10
5128;DHT22;2582;48.770;9.190;2023-06-24T12:57:54;35.00;44.10
5128;DHT22;2582;48.770;9.190;2023-06-24T13:00:21;34.70;41.70
5128;DHT22;2582;48.770;9.190;2023-06-24T13:02:46;35.00;42.30
5128;DHT22;2582;48.770;9.190;2023-06-24T13:05:12;35.50;41.00
5128;DHT22;2582;48.770;9.190;2023-06-24T13:07:38;35.90;40.40
5128;DHT22;2582;48.770;9.190;2023-06-24T13:10:04;35.90;40.40
5128;DHT22;2582;48.770;9.190;2023-06-24T13:12:31;36.00;41.50
5128;DHT22;2582;48.770;9.190;2023-06-24T13:14:57;36.90;39.50
5128;DHT22;2582;48.770;9.190;2023-06-24T13:17:23;36.20;39.50
5128;DHT22;2582;48.770;9.190;2023-06-24T13:19:50;37.40;38.50
5128;DHT22;2582;48.770;9.190;2023-06-24T13:22:15;38.40;37.50
5128;DHT22;2582;48.770;9.190;2023-06-24T13:24:41;37.20;36.90
5128;DHT22;2582;48.770;9.190;2023-06-24T13:27:07;36.30;36.80
5128;DHT22;2582;48.770;9.190;2023-06-24T13:29:32;36.90;36.80
5128;DHT22;2582;48.770;9.190;2023-06-24T13:31:58;38.00;36.00
5128;DHT22;2582;48.770;9.190;2023-06-24T13:34:23;38.70;35.70
5128;DHT22;2582;48.770;9.190;2023-06-24T13:36:49;37.70;36.80
5128;DHT22;2582;48.770;9.190;2023-06-24T13:39:15;37.20;36.80
5128;DHT22;2582;48.770;9.190;2023-06-24T13:41:44;37.80;36.00
5128;DHT22;2582;48.770;9.190;2023-06-24T13:44:10;36.40;37.30
5128;DHT22;2582;48.770;9.190;2023-06-24T13:46:36;35.70;38.50
5128;DHT22;2582;48.770;9.190;2023-06-24T13:49:02;36.70;37.80
5128;DHT22;2582;48.770;9.190;2023-06-24T13:51:28;38.30;36.10
5128;DHT22;2582;48.770;9.190;2023-06-24T13:53:54;38.50;36.40
5128;DHT22;2582;48.770;9.190;2023-06-24T13:56:21;37.90;35.70
5128;DHT22;2582;48.770;9.190;2023-06-24T13:58:47;38.10;36.40
5128;DHT22;2582;48.770;9.190;2023-06-24T14:01:13;38.00;35.30
5128;DHT22;2582;48.770;9.190;2023-06-24T14:03:39;38.10;35.90
5128;DHT22;2582;48.770;9.190;2023-06-24T14:06:05;39.10;34.60
5128;DHT22;2582;48.770;9.190;2023-06-24T14:08:32;39.40;34.70
5128;DHT22;2582;48.770;9.190;2023-06-24T14:10:58;38.20;35.40
5128;DHT22;2582;48.770;9.190;2023-06-24T14:13:25;38.70;35.40
5128;DHT22;2582;48.770;9.190;2023-06-24T14:15:50;37.70;36.20
5128;DHT22;2582;48.770;9.190;2023-06-24T14:18:16;36.70;37.30
5128;DHT22;2582;48.770;9.190;2023-06-24T14:20:41;36.50;38.70
5128;DHT22;2582;48.770;9.190;2023-06-24T14:23:07;37.20;37.70
5128;DHT22;2582;48.770;9.190;2023-06-24T14:25:33;37.50;37.90
5128;DHT22;2582;48.770;9.190;2023-06-24T14:27:58;38.00;36.80
5128;DHT22;2582;48.770;9.190;2023-06-24T14:30:24;37.20;37.20
5128;DHT22;2582;48.770;9.190;2023-06-24T14:32:49;37.70;37.30
5128;DHT22;2582;48.770;9.190;2023-06-24T14:35:15;37.70;37.00
5128;DHT22;2582;48.770;9.190;2023-06-24T14:37:41;37.00;37.40
5128;DHT22;2582;48.770;9.190;2023-06-24T14:40:08;37.20;38.40
5128;DHT22;2582;48.770;9.190;2023-06-24T14:42:35;37.60;36.70
5128;DHT22;2582;48.770;9.190;2023-06-24T14:45:00;37.00;36.90
5128;DHT22;2582;48.770;9.190;2023-06-24T14:47:26;37.20;37.10
5128;DHT22;2582;48.770;9.190;2023-06-24T14:49:51;38.00;36.20
5128;DHT22;2582;48.770;9.190;2023-06-24T14:52:17;38.30;36.20
5128;DHT22;2582;48.770;9.190;2023-06-24T14:54:43;38.10;35.60
5128;DHT22;2582;48.770;9.190;2023-06-24T14:57:08;38.10;36.20
5128;DHT22;2582;48.770;9.190;2023-06-24T14:59:34;39.00;35.30
5128;DHT22;2582;48.770;9.190;2023-06-24T15:01:59;38.80;35.90
5128;DHT22;2582;48.770;9.190;2023-06-24T15:04:25;39.80;34.60
5128;DHT22;2582;48.770;9.190;2023-06-24T15:06:50;40.60;33.30
5128;DHT22;2582;48.770;9.190;2023-06-24T15:09:16;37.50;36.70
5128;DHT22;2582;48.770;9.190;2023-06-24T15:11:41;37.20;36.50
5128;DHT22;2582;48.770;9.190;2023-06-24T15:14:07;38.20;35.60
5128;DHT22;2582;48.770;9.190;2023-06-24T15:16:33;37.50;36.50
5128;DHT22;2582;48.770;9.190;2023-06-24T15:18:58;38.30;36.50
5128;DHT22;2582;48.770;9.190;2023-06-24T15:21:24;38.40;35.70
5128;DHT22;2582;48.770;9.190;2023-06-24T15:23:49;38.80;35.30
5128;DHT22;2582;48.770;9.190;2023-06-24T15:26:15;37.90;36.10
5128;DHT22;2582;48.770;9.190;2023-06-24T15:28:41;38.10;35.50
5128;DHT22;2582;48.770;9.190;2023-06-24T15:31:06;39.10;34.90
5128;DHT22;2582;48.770;9.190;2023-06-24T15:33:32;39.70;34.10
5128;DHT22;2582;48.770;9.190;2023-06-24T15:35:57;37.20;35.40
5128;DHT22;2582;48.770;9.190;2023-06-24T15:38:24;36.20;37.20
5128;DHT22;2582;48.770;9.190;2023-06-24T15:40:50;36.30;37.50
5128;DHT22;2582;48.770;9.190;2023-06-24T15:43:16;37.20;36.50
5128;DHT22;2582;48.770;9.190;2023-06-24T15:45:41;38.10;35.70
5128;DHT22;2582;48.770;9.190;2023-06-24T15:48:07;38.80;34.50
5128;DHT22;2582;48.770;9.190;2023-06-24T15:50:32;37.60;36.60
5128;DHT22;2582;48.770;9.190;2023-06-24T15:52:58;37.10;36.80
5128;DHT22;2582;48.770;9.190;2023-06-24T15:55:24;36.50;36.70
5128;DHT22;2582;48.770;9.190;2023-06-24T15:57:49;37.10;36.90
5128;DHT22;2582;48.770;9.190;2023-06-24T16:00:15;37.90;36.80
5128;DHT22;2582;48.770;9.190;2023-06-24T16:02:41;38.60;34.90
5128;DHT22;2582;48.770;9.190;2023-06-24T16:05:07;38.60;35.50
5128;DHT22;2582;48.770;9.190;2023-06-24T16:07:35;37.60;35.80
5128;DHT22;2582;48.770;9.190;2023-06-24T16:10:02;36.70;36.50
5128;DHT22;2582;48.770;9.190;2023-06-24T16:12:28;36.40;37.80
5128;DHT22;2582;48.770;9.190;2023-06-24T16:14:54;37.10;37.00
5128;DHT22;2582;48.770;9.190;2023-06-24T16:17:19;36.30;37.00
5128;DHT22;2582;48.770;9.190;2023-06-24T16:19:45;35.70;38.00
5128;DHT22;2582;48.770;9.190;2023-06-24T16:22:11;35.80;37.90
5128;DHT22;2582;48.770;9.190;2023-06-24T16:24:36;36.10;38.50
5128;DHT22;2582;48.770;9.190;2023-06-24T16:27:02;36.30;37.40
5128;DHT22;2582;48.770;9.190;2023-06-24T16:29:28;36.40;37.30